Airfield :
LOGIN :

Register | Disclaimer

   EN    FR    IT 

 










Legend :    VFR   Marginal VFR   IFR   Intensive IFR   Very Intensive IFR
Visi :
Ceiling :
>= 8 km
>= 3000ft
5 to 8 km
1000 to 3000 ft
1500m to 5 km
500 to 1000 ft
800 to 1500m
200 to 500 ft
< 800m
< 200 ft
Symbols :   Thunderstorms  Fog  Heavy snow  Heavy precipitations  Wind > 20 kt
SIGMETs :     Misc.  Thunderstorms  Icing  Turbulence  Mountain Waves  Volcanic Ashes






- Airport Elevation : 2776 ft
- IATA code : VLL


LEVD - Valladolid

CURRENT METAR :
  • 170930Z 24010KT 5000 -RA OVC003 05/05 Q1012

EXPIRED METARs :
  • 170900Z 23010KT 3000 BR OVC002 04/04 Q1012
  • 170852Z 23010KT 3000 BR OVC002 04/04 Q1012
  • 170830Z 23009KT 0900 R23/1600U R05/1700U FG OVC001 04/04 Q1012
  • 170800Z 23011KT 1100 R23/P2000 R05/P2000 BR OVC001 04/04 Q1012
  • 170730Z 23011KT 3000 BR OVC002 04/03 Q1012
  • 170719Z 23011KT 4000 BR OVC003 04/04 Q1012
  • 170700Z 23009KT 9999 OVC004 04/03 Q1012

TAF TAF LEVD
Valid from the 17 at 06:00 until the 18 at 06:00 UTC


170500Z 1706/1806 23008KT 9999 BKN035 TX09/1714Z TN01/1706Z
TEMPO 1710/1721 27015G25KT
BECMG 1719/1721 29010KT
PROB40
TEMPO 1706/1715 3000 BR BKN004
PROB30
TEMPO 1706/1713 0100 FG VV001
PROB40
TEMPO 1706/1721 4900 RA BKN014
TEMPO 1723/1806 3000 BR BKN004
PROB30
TEMPO 1800/1806 0100 FG VV001



MET'MAP, your aeronautical weather chart ! - Copyright ORBIFLY December 2007 - Disclaimer

ORBIFLY MET'MAP TEAM :

Programming & Development : Alexandra Zaïnal
Concept & Development : Baudouin d'Aumeries
Co-Development & Prog : Marc-Olivier Méhu
Technical & hardware support : Manuel Goepfert

Contact : metmap@orbifly.com




SOURCES & CREDITS :

   NOAA